Time;durP1;ratioP1;P1;durP2;ratioP2;P2;SDS_P1;SDS_P2;PMS_P1;PMS_P2;Temp;Humidity;BMP_temperature;BMP_pressure;BME280_temperature;BME280_humidity;BME280_pressure;Samples;Min_cycle;Max_cycle;Signal;HPM_P1;HPM_P2
2023/01/17 00:00:37;;;;;;;3.70;1.00;;;;;;;;;;5056537;28;20543;-67
2023/01/17 00:03:06;;;;;;;1.00;0.90;;;;;;;;;;5056793;28;20385;-67
2023/01/17 00:11:00;;;;;;;1.08;0.68;;;;;;;;;;5056458;28;20236;-67
2023/01/17 00:13:26;;;;;;;1.85;0.70;;;;;;;;;;5056815;28;20216;-67
2023/01/17 00:15:53;;;;;;;0.77;0.77;;;;;;;;;;5056308;28;20205;-66
2023/01/17 00:18:20;;;;;;;0.80;0.80;;;;;;;;;;5056439;28;20445;-67
2023/01/17 00:26:25;;;;;;;0.88;0.88;;;;;;;;;;5051094;28;20434;-67
2023/01/17 01:35:37;;;;;;;0.80;0.80;;;;;;;;;;5076636;28;20234;-67
2023/01/17 01:38:04;;;;;;;1.25;1.10;;;;;;;;;;5077393;28;20234;-67
2023/01/17 01:40:30;;;;;;;1.17;0.80;;;;;;;;;;5074025;28;20215;-67
2023/01/17 01:42:58;;;;;;;3.20;1.20;;;;;;;;;;5073398;28;20504;-67
2023/01/17 01:45:25;;;;;;;0.80;0.80;;;;;;;;;;5074737;28;20504;-67
2023/01/17 01:47:53;;;;;;;0.82;0.82;;;;;;;;;;5076612;28;20264;-67
2023/01/17 01:50:21;;;;;;;0.80;0.80;;;;;;;;;;5075027;28;20446;-67
2023/01/17 01:52:50;;;;;;;1.10;0.90;;;;;;;;;;5072882;28;20241;-67
2023/01/17 01:55:19;;;;;;;1.30;0.90;;;;;;;;;;5073278;28;20259;-67
2023/01/17 01:57:47;;;;;;;1.48;1.10;;;;;;;;;;5075985;28;20204;-67
2023/01/17 02:00:15;;;;;;;0.82;0.82;;;;;;;;;;5076428;28;20205;-67
2023/01/17 02:02:42;;;;;;;1.05;0.80;;;;;;;;;;5072352;28;20198;-67
2023/01/17 02:05:09;;;;;;;1.00;1.00;;;;;;;;;;5072548;28;20201;-67
2023/01/17 02:07:38;;;;;;;1.02;1.02;;;;;;;;;;5075799;28;20207;-67
2023/01/17 02:10:04;;;;;;;1.42;0.90;;;;;;;;;;5075813;28;20197;-67
2023/01/17 02:12:32;;;;;;;1.10;1.05;;;;;;;;;;5074199;28;20432;-67
2023/01/17 02:14:59;;;;;;;0.70;0.70;;;;;;;;;;5073060;28;20204;-67
2023/01/17 02:17:29;;;;;;;0.90;0.90;;;;;;;;;;5073734;28;20208;-67
2023/01/17 02:20:08;;;;;;;0.77;0.77;;;;;;;;;;5075801;28;20527;-67
2023/01/17 02:22:49;;;;;;;0.88;0.80;;;;;;;;;;5072890;28;20212;-67
2023/01/17 02:25:40;;;;;;;1.95;0.90;;;;;;;;;;5071045;28;20201;-67
2023/01/17 02:28:17;;;;;;;0.70;0.70;;;;;;;;;;5075380;28;20216;-67
2023/01/17 02:30:46;;;;;;;0.70;0.70;;;;;;;;;;5072213;28;20235;-67
2023/01/17 02:33:17;;;;;;;0.77;0.77;;;;;;;;;;5072499;28;20524;-67
2023/01/17 02:35:48;;;;;;;0.90;0.90;;;;;;;;;;5073057;28;20255;-67
2023/01/17 02:38:17;;;;;;;1.02;0.80;;;;;;;;;;5072224;28;20503;-67
2023/01/17 02:40:45;;;;;;;0.90;0.80;;;;;;;;;;5075185;28;20363;-67
2023/01/17 02:43:13;;;;;;;1.50;0.90;;;;;;;;;;5075715;28;20200;-67
2023/01/17 02:45:39;;;;;;;2.13;0.95;;;;;;;;;;5075524;28;20205;-67
2023/01/17 02:48:08;;;;;;;0.77;0.77;;;;;;;;;;5075647;28;20200;-67
2023/01/17 02:50:39;;;;;;;1.08;0.98;;;;;;;;;;5072342;28;20225;-67
2023/01/17 02:53:11;;;;;;;0.90;0.90;;;;;;;;;;5071952;28;20256;-67
2023/01/17 02:55:42;;;;;;;1.02;0.90;;;;;;;;;;5075379;28;20385;-67
2023/01/17 02:58:18;;;;;;;1.95;1.00;;;;;;;;;;5075794;28;20222;-67
2023/01/17 03:00:48;;;;;;;2.13;1.65;;;;;;;;;;5071846;28;20412;-67
2023/01/17 03:03:20;;;;;;;4.00;1.35;;;;;;;;;;5072112;28;20207;-67
2023/01/17 03:05:49;;;;;;;1.33;0.80;;;;;;;;;;5075425;28;20339;-67
2023/01/17 03:08:15;;;;;;;1.45;0.77;;;;;;;;;;5075097;28;20200;-67
2023/01/17 03:10:42;;;;;;;2.28;0.90;;;;;;;;;;5071746;28;20220;-67
2023/01/17 03:13:09;;;;;;;0.70;0.68;;;;;;;;;;5071961;28;20205;-67
2023/01/17 03:15:35;;;;;;;1.17;0.70;;;;;;;;;;5074654;28;20213;-67
2023/01/17 03:18:03;;;;;;;1.60;0.90;;;;;;;;;;5074956;28;20219;-67
2023/01/17 03:20:31;;;;;;;1.48;0.68;;;;;;;;;;5072877;28;20201;-67
2023/01/17 03:22:57;;;;;;;0.77;0.77;;;;;;;;;;5071482;28;20205;-67
2023/01/17 03:25:23;;;;;;;0.80;0.80;;;;;;;;;;5072566;28;20205;-67
2023/01/17 03:27:49;;;;;;;0.60;0.60;;;;;;;;;;5074702;28;20253;-67
2023/01/17 03:30:16;;;;;;;3.88;0.70;;;;;;;;;;5074233;28;20507;-67
2023/01/17 03:32:42;;;;;;;0.60;0.60;;;;;;;;;;5071434;28;20205;-67
2023/01/17 03:35:09;;;;;;;0.98;0.60;;;;;;;;;;5071287;28;20212;-67
2023/01/17 03:37:36;;;;;;;0.70;0.70;;;;;;;;;;5074259;28;20416;-67
2023/01/17 03:40:03;;;;;;;0.60;0.60;;;;;;;;;;5074508;28;20200;-67
2023/01/17 03:42:29;;;;;;;1.60;0.85;;;;;;;;;;5066364;28;20536;-67
2023/01/17 03:44:55;;;;;;;0.63;0.63;;;;;;;;;;5074808;28;20225;-67
2023/01/17 03:47:22;;;;;;;2.92;0.70;;;;;;;;;;5073041;28;20208;-67
2023/01/17 03:49:48;;;;;;;1.90;0.73;;;;;;;;;;5070731;28;20197;-67
2023/01/17 03:52:14;;;;;;;0.70;0.70;;;;;;;;;;5070847;28;20466;-67
2023/01/17 03:54:42;;;;;;;0.50;0.50;;;;;;;;;;5074339;28;20222;-67
2023/01/17 03:57:08;;;;;;;0.70;0.70;;;;;;;;;;5074582;28;20246;-67
2023/01/17 03:59:34;;;;;;;0.63;0.63;;;;;;;;;;5071155;28;20205;-67
2023/01/17 04:02:01;;;;;;;1.10;0.63;;;;;;;;;;5070973;28;20202;-67
2023/01/17 04:04:27;;;;;;;0.63;0.60;;;;;;;;;;5072807;28;20201;-67
2023/01/17 04:06:53;;;;;;;1.02;1.02;;;;;;;;;;5074007;28;20242;-67
2023/01/17 04:09:19;;;;;;;7.90;6.75;;;;;;;;;;5073029;28;20222;-67
2023/01/17 04:11:49;;;;;;;13.35;10.82;;;;;;;;;;5070538;28;20220;-67
2023/01/17 04:14:15;;;;;;;3.25;2.95;;;;;;;;;;5070439;28;20231;-67
2023/01/17 04:16:42;;;;;;;1.25;1.00;;;;;;;;;;5074100;28;20204;-67
2023/01/17 04:19:09;;;;;;;0.77;0.77;;;;;;;;;;5073919;28;20434;-67
2023/01/17 04:21:35;;;;;;;2.75;2.55;;;;;;;;;;5071058;28;20200;-67
2023/01/17 04:24:01;;;;;;;0.80;0.80;;;;;;;;;;5070741;28;20201;-67
2023/01/17 04:26:27;;;;;;;1.10;1.10;;;;;;;;;;5072297;28;20224;-67
2023/01/17 04:28:55;;;;;;;1.95;1.50;;;;;;;;;;5073514;28;20220;-67
2023/01/17 04:31:21;;;;;;;1.30;1.10;;;;;;;;;;5072552;28;20224;-67
2023/01/17 04:33:48;;;;;;;3.67;1.10;;;;;;;;;;5070436;28;20431;-67
2023/01/17 04:36:14;;;;;;;0.85;0.85;;;;;;;;;;5070329;28;20254;-67
2023/01/17 04:38:40;;;;;;;0.88;0.80;;;;;;;;;;5070188;28;20197;-67
2023/01/17 04:41:06;;;;;;;1.05;0.95;;;;;;;;;;5070005;28;20193;-67
2023/01/17 04:43:33;;;;;;;1.13;1.00;;;;;;;;;;5072506;28;20209;-67
2023/01/17 04:46:03;;;;;;;0.82;0.82;;;;;;;;;;5073637;28;20242;-67
2023/01/17 04:48:30;;;;;;;0.93;0.93;;;;;;;;;;5071370;28;20267;-67
2023/01/17 04:51:00;;;;;;;0.85;0.85;;;;;;;;;;5070032;28;20205;-67
2023/01/17 04:53:26;;;;;;;2.15;1.00;;;;;;;;;;5071730;28;20523;-67
2023/01/17 04:55:52;;;;;;;0.90;0.90;;;;;;;;;;5073459;28;20203;-67
2023/01/17 04:58:19;;;;;;;1.05;1.05;;;;;;;;;;5073053;28;20212;-67
2023/01/17 05:00:49;;;;;;;1.95;1.10;;;;;;;;;;5070063;28;20196;-67
2023/01/17 05:03:17;;;;;;;1.15;1.15;;;;;;;;;;5072901;28;20201;-67
2023/01/17 05:05:43;;;;;;;2.30;1.13;;;;;;;;;;5077581;28;20218;-67
2023/01/17 05:08:09;;;;;;;1.10;1.10;;;;;;;;;;5077641;28;20261;-67
2023/01/17 05:10:36;;;;;;;0.93;0.80;;;;;;;;;;5074056;28;20212;-67
2023/01/17 05:13:02;;;;;;;0.80;0.80;;;;;;;;;;5074044;28;20516;-67
2023/01/17 05:15:29;;;;;;;1.70;0.90;;;;;;;;;;5075961;28;20201;-67
2023/01/17 05:17:55;;;;;;;2.15;1.13;;;;;;;;;;5077528;28;20499;-67
2023/01/17 05:20:23;;;;;;;0.93;0.93;;;;;;;;;;5076069;28;20208;-67
2023/01/17 05:22:54;;;;;;;1.13;1.13;;;;;;;;;;5073738;28;20204;-67
2023/01/17 05:25:20;;;;;;;1.10;1.10;;;;;;;;;;5074681;28;20244;-67
2023/01/17 05:27:46;;;;;;;2.30;1.10;;;;;;;;;;5077198;28;20224;-67
2023/01/17 05:30:13;;;;;;;1.23;1.23;;;;;;;;;;5076869;28;20200;-67
2023/01/17 05:32:39;;;;;;;1.23;0.98;;;;;;;;;;5065399;28;20234;-67
2023/01/17 05:35:06;;;;;;;1.35;1.30;;;;;;;;;;5073868;28;20205;-67
2023/01/17 05:37:33;;;;;;;1.30;1.20;;;;;;;;;;5074237;28;20497;-67
2023/01/17 05:40:00;;;;;;;1.08;1.08;;;;;;;;;;5071513;28;20194;-67
2023/01/17 05:42:27;;;;;;;1.38;1.38;;;;;;;;;;5075034;28;20204;-67
2023/01/17 05:44:53;;;;;;;1.33;1.23;;;;;;;;;;5073449;28;20239;-67
2023/01/17 05:47:20;;;;;;;2.65;1.10;;;;;;;;;;5074091;28;20213;-67
2023/01/17 05:49:46;;;;;;;2.53;1.30;;;;;;;;;;5076402;28;20201;-67
2023/01/17 05:52:12;;;;;;;1.30;1.20;;;;;;;;;;5076529;28;20224;-67
2023/01/17 05:54:40;;;;;;;2.13;1.02;;;;;;;;;;5073232;28;20505;-67
2023/01/17 05:57:06;;;;;;;1.40;1.40;;;;;;;;;;5073206;28;20395;-67
2023/01/17 05:59:32;;;;;;;1.77;1.67;;;;;;;;;;5075380;28;20437;-67
2023/01/17 06:01:59;;;;;;;2.45;2.35;;;;;;;;;;5076061;28;20197;-67
2023/01/17 06:04:25;;;;;;;2.50;2.40;;;;;;;;;;5074637;28;20204;-67
2023/01/17 06:06:51;;;;;;;2.22;2.13;;;;;;;;;;5072506;28;20279;-67
2023/01/17 06:09:17;;;;;;;2.30;2.10;;;;;;;;;;5073010;28;20201;-67
2023/01/17 06:11:45;;;;;;;2.08;1.98;;;;;;;;;;5075989;28;20258;-67
2023/01/17 06:14:11;;;;;;;1.33;1.33;;;;;;;;;;5074785;28;20238;-67
2023/01/17 06:16:37;;;;;;;1.60;1.50;;;;;;;;;;5072673;28;20205;-67
2023/01/17 06:19:04;;;;;;;1.25;1.25;;;;;;;;;;5072332;28;20201;-67
2023/01/17 06:21:30;;;;;;;1.70;1.63;;;;;;;;;;5074863;28;20201;-67
2023/01/17 06:23:56;;;;;;;1.60;1.50;;;;;;;;;;5075594;28;20200;-67
2023/01/17 06:26:22;;;;;;;2.17;2.00;;;;;;;;;;5074464;28;20401;-67
2023/01/17 06:28:50;;;;;;;2.38;2.20;;;;;;;;;;5071804;28;20257;-67
2023/01/17 06:31:17;;;;;;;3.70;3.40;;;;;;;;;;5072324;28;20231;-67
2023/01/17 06:33:43;;;;;;;7.88;4.22;;;;;;;;;;5075244;28;20203;-67
2023/01/17 06:36:09;;;;;;;3.67;2.67;;;;;;;;;;5075440;28;20206;-67
2023/01/17 06:38:35;;;;;;;3.17;2.95;;;;;;;;;;5072653;28;20197;-67
2023/01/17 06:41:03;;;;;;;3.80;2.78;;;;;;;;;;5071699;28;20488;-67
2023/01/17 06:43:32;;;;;;;3.15;2.83;;;;;;;;;;5073953;28;20224;-67
2023/01/17 06:46:00;;;;;;;3.22;2.20;;;;;;;;;;5075079;28;20204;-67
2023/01/17 06:48:26;;;;;;;3.08;2.78;;;;;;;;;;5073749;28;20451;-69
2023/01/17 06:50:53;;;;;;;1.88;1.77;;;;;;;;;;5071958;28;20197;-69
2023/01/17 06:53:19;;;;;;;2.95;2.33;;;;;;;;;;5072644;28;20473;-68
2023/01/17 06:55:45;;;;;;;3.08;2.30;;;;;;;;;;5075510;28;20192;-68
2023/01/17 06:58:11;;;;;;;3.83;2.30;;;;;;;;;;5075349;28;20204;-68
2023/01/17 07:00:38;;;;;;;2.60;2.40;;;;;;;;;;5072161;28;20197;-68
2023/01/17 07:03:07;;;;;;;2.30;2.20;;;;;;;;;;5071680;28;20421;-68
2023/01/17 07:05:35;;;;;;;2.45;2.10;;;;;;;;;;5074166;28;20220;-69
2023/01/17 07:08:01;;;;;;;1.75;1.55;;;;;;;;;;5075327;28;20204;-69
2023/01/17 07:10:27;;;;;;;1.90;1.80;;;;;;;;;;5075173;28;20200;-69
2023/01/17 07:12:57;;;;;;;3.28;1.80;;;;;;;;;;5075416;28;20270;-69
2023/01/17 07:15:23;;;;;;;2.95;1.65;;;;;;;;;;5073675;28;20196;-69
2023/01/17 07:17:50;;;;;;;1.70;1.60;;;;;;;;;;5071753;28;20520;-69
2023/01/17 07:20:17;;;;;;;1.85;1.73;;;;;;;;;;5071271;28;20372;-69
2023/01/17 07:22:44;;;;;;;1.77;1.67;;;;;;;;;;5074968;28;20242;-69
2023/01/17 07:25:10;;;;;;;1.55;1.50;;;;;;;;;;5074331;28;20205;-69
2023/01/17 07:27:37;;;;;;;1.50;1.50;;;;;;;;;;5071662;28;20566;-69
2023/01/17 07:30:03;;;;;;;3.40;2.00;;;;;;;;;;5071069;28;20239;-69
2023/01/17 07:32:30;;;;;;;2.78;2.00;;;;;;;;;;5073597;28;20225;-69
2023/01/17 07:34:57;;;;;;;2.38;2.10;;;;;;;;;;5074889;28;20515;-69
2023/01/17 07:37:25;;;;;;;2.65;1.67;;;;;;;;;;5073343;28;20212;-69
2023/01/17 07:39:52;;;;;;;4.43;2.10;;;;;;;;;;5070917;28;20204;-69
2023/01/17 07:42:18;;;;;;;3.75;2.33;;;;;;;;;;5071544;28;20201;-69
2023/01/17 07:44:45;;;;;;;6.15;2.80;;;;;;;;;;5074334;28;20201;-69
2023/01/17 07:47:11;;;;;;;3.00;2.65;;;;;;;;;;5074408;28;20206;-69
2023/01/17 07:49:37;;;;;;;4.03;2.50;;;;;;;;;;5070600;28;20224;-68
2023/01/17 07:52:06;;;;;;;2.65;2.30;;;;;;;;;;5057834;28;20271;-68
2023/01/17 07:54:33;;;;;;;3.92;2.97;;;;;;;;;;5075934;28;20240;-68
2023/01/17 07:57:00;;;;;;;3.28;3.00;;;;;;;;;;5076550;28;20524;-68
2023/01/17 07:59:26;;;;;;;2.60;2.40;;;;;;;;;;5075218;28;20223;-68
2023/01/17 08:01:52;;;;;;;3.00;2.70;;;;;;;;;;5074540;28;20220;-68
2023/01/17 08:04:19;;;;;;;3.20;2.78;;;;;;;;;;5069074;28;20546;-69
2023/01/17 08:06:47;;;;;;;4.03;2.40;;;;;;;;;;5075826;28;20519;-69
2023/01/17 08:09:13;;;;;;;2.97;2.67;;;;;;;;;;5075326;28;20224;-69
2023/01/17 08:11:41;;;;;;;3.65;2.83;;;;;;;;;;5075665;28;20283;-69
2023/01/17 08:14:07;;;;;;;5.20;3.10;;;;;;;;;;5074959;28;20252;-58
2023/01/17 08:16:33;;;;;;;4.53;3.00;;;;;;;;;;5081357;28;20215;-56
2023/01/17 08:19:00;;;;;;;4.55;2.75;;;;;;;;;;5074850;28;20217;-57
2023/01/17 08:21:26;;;;;;;4.45;2.65;;;;;;;;;;5066716;28;20258;-57
2023/01/17 08:23:52;;;;;;;7.30;3.17;;;;;;;;;;5074944;28;20212;-56
2023/01/17 08:26:21;;;;;;;3.22;2.97;;;;;;;;;;5075271;28;20216;-56
2023/01/17 08:28:49;;;;;;;4.40;2.92;;;;;;;;;;5074821;28;20236;-56
2023/01/17 08:31:16;;;;;;;6.20;3.17;;;;;;;;;;5077697;28;20223;-57
2023/01/17 08:33:42;;;;;;;8.48;3.13;;;;;;;;;;5074788;28;20220;-59
2023/01/17 08:36:08;;;;;;;5.13;3.47;;;;;;;;;;5072284;28;20429;-59
2023/01/17 08:38:35;;;;;;;3.65;3.22;;;;;;;;;;5072694;28;20220;-58
2023/01/17 08:41:01;;;;;;;6.10;3.17;;;;;;;;;;5073640;28;20212;-58
2023/01/17 08:43:27;;;;;;;3.50;3.13;;;;;;;;;;5074759;28;20216;-59
2023/01/17 08:45:55;;;;;;;4.50;2.67;;;;;;;;;;5074314;28;20235;-58
2023/01/17 08:48:22;;;;;;;3.50;3.20;;;;;;;;;;5071926;28;20220;-57
2023/01/17 08:50:48;;;;;;;5.07;3.00;;;;;;;;;;5074799;28;20212;-59
2023/01/17 08:53:15;;;;;;;3.97;2.90;;;;;;;;;;5074458;28;20299;-59
2023/01/17 08:55:41;;;;;;;4.30;3.72;;;;;;;;;;5067373;28;20213;-58
2023/01/17 08:58:07;;;;;;;3.97;3.35;;;;;;;;;;5074777;28;20228;-59
2023/01/17 09:00:33;;;;;;;3.70;3.20;;;;;;;;;;5074538;28;20554;-58
2023/01/17 09:03:01;;;;;;;3.33;3.03;;;;;;;;;;5073488;28;20228;-58
2023/01/17 09:05:27;;;;;;;4.63;3.03;;;;;;;;;;5074094;28;20219;-58
2023/01/17 09:07:54;;;;;;;3.60;3.30;;;;;;;;;;5074103;28;20279;-59
2023/01/17 09:10:22;;;;;;;5.03;3.97;;;;;;;;;;5074503;28;20220;-58
2023/01/17 09:12:48;;;;;;;4.63;3.63;;;;;;;;;;5073737;28;20231;-59
2023/01/17 09:15:18;;;;;;;4.55;3.60;;;;;;;;;;5074785;28;20212;-58
2023/01/17 09:17:45;;;;;;;4.68;3.20;;;;;;;;;;5070049;28;20213;-58
2023/01/17 09:20:13;;;;;;;3.92;3.38;;;;;;;;;;5074098;28;20220;-59
2023/01/17 09:22:39;;;;;;;4.25;3.38;;;;;;;;;;5072074;28;20262;-59
2023/01/17 09:25:06;;;;;;;3.30;3.08;;;;;;;;;;5074641;28;20212;-58
2023/01/17 09:27:32;;;;;;;2.92;2.72;;;;;;;;;;5070741;28;20236;-58
2023/01/17 09:29:58;;;;;;;3.45;2.90;;;;;;;;;;5074491;28;20279;-58
2023/01/17 09:32:25;;;;;;;3.58;2.67;;;;;;;;;;5072726;28;20220;-60
2023/01/17 09:34:52;;;;;;;6.70;3.40;;;;;;;;;;5074576;28;20489;-58
2023/01/17 09:37:19;;;;;;;3.58;3.28;;;;;;;;;;5074521;28;20530;-58
2023/01/17 09:39:46;;;;;;;4.68;3.15;;;;;;;;;;5073893;28;20216;-58
2023/01/17 09:42:18;;;;;;;3.00;2.80;;;;;;;;;;5073892;28;20300;-58
2023/01/17 09:44:46;;;;;;;3.58;2.97;;;;;;;;;;5067212;28;20237;-59
2023/01/17 09:47:16;;;;;;;3.20;2.75;;;;;;;;;;5062712;28;20573;-58
2023/01/17 09:49:43;;;;;;;3.92;2.40;;;;;;;;;;5074407;28;20209;-58
2023/01/17 09:52:11;;;;;;;4.05;2.30;;;;;;;;;;5068369;28;20432;-57
2023/01/17 09:54:40;;;;;;;2.35;2.13;;;;;;;;;;5060786;28;20221;-56
2023/01/17 09:57:12;;;;;;;2.05;1.80;;;;;;;;;;5077483;28;20403;-57
2023/01/17 09:59:43;;;;;;;2.00;1.80;;;;;;;;;;5080962;28;20255;-57
2023/01/17 10:02:17;;;;;;;2.10;2.00;;;;;;;;;;5074448;28;20278;-57
2023/01/17 10:04:51;;;;;;;2.22;2.03;;;;;;;;;;5080061;28;20208;-57
2023/01/17 10:07:21;;;;;;;1.88;1.77;;;;;;;;;;5077050;28;20220;-57
2023/01/17 10:10:02;;;;;;;2.95;1.90;;;;;;;;;;5065136;28;20213;-57
2023/01/17 10:12:31;;;;;;;4.20;2.03;;;;;;;;;;5069771;28;20243;-56
2023/01/17 10:15:05;;;;;;;2.70;2.50;;;;;;;;;;5070589;28;20215;-56
2023/01/17 10:17:36;;;;;;;3.08;2.30;;;;;;;;;;5068225;28;20219;-59
2023/01/17 10:20:08;;;;;;;3.72;3.13;;;;;;;;;;5065300;28;20213;-57
2023/01/17 10:22:45;;;;;;;3.20;2.50;;;;;;;;;;5071167;28;20216;-58
2023/01/17 10:25:22;;;;;;;3.90;2.42;;;;;;;;;;5081152;28;20203;-59
2023/01/17 10:27:55;;;;;;;4.93;2.75;;;;;;;;;;5064465;28;20442;-57
2023/01/17 10:30:23;;;;;;;3.85;3.10;;;;;;;;;;5064001;28;20524;-56
2023/01/17 10:32:49;;;;;;;1.48;1.40;;;;;;;;;;5067011;28;20320;-59
2023/01/17 10:35:20;;;;;;;2.78;0.85;;;;;;;;;;5084440;28;20411;-57
2023/01/17 10:37:47;;;;;;;1.13;1.10;;;;;;;;;;5079551;28;20215;-59
2023/01/17 10:40:16;;;;;;;1.58;1.10;;;;;;;;;;5075713;28;20211;-57
2023/01/17 10:42:49;;;;;;;0.93;0.90;;;;;;;;;;5063415;28;20251;-58
2023/01/17 10:45:19;;;;;;;1.15;1.08;;;;;;;;;;5065454;28;20280;-59
2023/01/17 10:47:48;;;;;;;1.00;0.95;;;;;;;;;;5063983;28;20236;-59
2023/01/17 10:50:15;;;;;;;0.93;0.93;;;;;;;;;;5063147;28;20208;-58
2023/01/17 10:52:45;;;;;;;0.80;0.80;;;;;;;;;;5072756;28;20283;-58
2023/01/17 10:55:17;;;;;;;0.65;0.65;;;;;;;;;;5063419;28;20432;-59
2023/01/17 10:57:46;;;;;;;1.27;0.88;;;;;;;;;;5061162;28;20205;-58
2023/01/17 11:00:25;;;;;;;0.90;0.90;;;;;;;;;;5062771;28;20259;-58
2023/01/17 11:02:51;;;;;;;1.35;0.95;;;;;;;;;;5055054;28;20205;-58
2023/01/17 11:05:21;;;;;;;1.65;0.80;;;;;;;;;;5063421;28;20219;-58
2023/01/17 11:07:56;;;;;;;1.08;1.08;;;;;;;;;;5067027;28;20568;-56
2023/01/17 11:10:34;;;;;;;1.45;0.80;;;;;;;;;;5062899;28;20450;-57
2023/01/17 11:13:02;;;;;;;2.45;0.93;;;;;;;;;;5065655;28;20563;-56
2023/01/17 11:15:30;;;;;;;3.55;1.10;;;;;;;;;;5064950;28;20451;-59
2023/01/17 11:18:00;;;;;;;1.20;1.10;;;;;;;;;;5072262;28;20216;-58
2023/01/17 11:20:29;;;;;;;0.70;0.70;;;;;;;;;;5075355;28;20254;-58
2023/01/17 11:23:11;;;;;;;1.52;0.90;;;;;;;;;;5071845;28;20474;-57
2023/01/17 11:25:37;;;;;;;0.80;0.80;;;;;;;;;;5065137;28;20216;-57
2023/01/17 11:28:07;;;;;;;1.55;0.80;;;;;;;;;;5068694;28;20228;-59
2023/01/17 11:30:33;;;;;;;0.60;0.60;;;;;;;;;;5060859;28;20217;-58
2023/01/17 11:33:03;;;;;;;1.58;0.70;;;;;;;;;;5073169;28;20208;-58
2023/01/17 11:35:30;;;;;;;0.85;0.70;;;;;;;;;;5061401;28;20228;-58
2023/01/17 11:38:04;;;;;;;0.40;0.40;;;;;;;;;;5069255;28;20446;-58
2023/01/17 11:40:32;;;;;;;0.63;0.60;;;;;;;;;;5073766;28;20451;-58
2023/01/17 11:43:03;;;;;;;1.02;0.70;;;;;;;;;;5072097;28;20209;-58
2023/01/17 11:45:32;;;;;;;0.50;0.50;;;;;;;;;;5059547;28;20213;-58
2023/01/17 11:48:12;;;;;;;0.52;0.52;;;;;;;;;;5063125;28;20216;-58
2023/01/17 11:50:40;;;;;;;0.68;0.68;;;;;;;;;;5058578;28;20579;-58
2023/01/17 11:53:07;;;;;;;0.70;0.60;;;;;;;;;;5078452;28;20540;-58
2023/01/17 11:55:33;;;;;;;0.50;0.50;;;;;;;;;;5068152;28;20217;-59
2023/01/17 11:58:00;;;;;;;0.65;0.60;;;;;;;;;;5063798;28;20209;-56
2023/01/17 12:00:29;;;;;;;0.73;0.50;;;;;;;;;;5063219;28;20243;-58
2023/01/17 12:03:12;;;;;;;0.52;0.52;;;;;;;;;;5067907;28;20217;-57
2023/01/17 12:05:42;;;;;;;0.90;0.60;;;;;;;;;;5074367;28;20214;-56
2023/01/17 12:08:14;;;;;;;1.08;0.50;;;;;;;;;;5073801;28;20211;-58
2023/01/17 12:10:45;;;;;;;0.63;0.63;;;;;;;;;;5069448;28;20224;-58
2023/01/17 12:18:56;;;;;;;0.70;0.70;;;;;;;;;;5071075;28;20208;-56
2023/01/17 12:21:28;;;;;;;1.63;0.60;;;;;;;;;;5072699;28;20223;-56
2023/01/17 12:24:00;;;;;;;0.60;0.60;;;;;;;;;;5074835;28;20713;-57
2023/01/17 12:26:31;;;;;;;0.70;0.70;;;;;;;;;;5076032;28;20617;-56
2023/01/17 12:29:02;;;;;;;2.25;0.63;;;;;;;;;;5076445;28;20243;-56
2023/01/17 12:31:32;;;;;;;0.88;0.60;;;;;;;;;;5076185;28;20212;-57
2023/01/17 12:34:02;;;;;;;0.70;0.70;;;;;;;;;;5070142;28;20299;-60
2023/01/17 12:36:35;;;;;;;1.55;0.50;;;;;;;;;;5076970;28;20212;-59
2023/01/17 12:39:03;;;;;;;0.70;0.70;;;;;;;;;;5070726;28;20209;-59
2023/01/17 12:41:32;;;;;;;0.50;0.50;;;;;;;;;;5059089;28;20296;-58
2023/01/17 12:43:59;;;;;;;1.48;0.50;;;;;;;;;;5058991;28;20377;-59
2023/01/17 12:46:28;;;;;;;0.60;0.60;;;;;;;;;;5071124;28;20208;-58
2023/01/17 12:48:58;;;;;;;3.55;0.80;;;;;;;;;;5070428;28;20208;-59
2023/01/17 12:51:28;;;;;;;1.48;0.60;;;;;;;;;;5061383;28;20520;-59
2023/01/17 12:53:57;;;;;;;0.60;0.60;;;;;;;;;;5064492;28;20410;-59
2023/01/17 12:56:26;;;;;;;1.38;0.50;;;;;;;;;;5062511;28;20212;-59
2023/01/17 12:58:54;;;;;;;0.77;0.55;;;;;;;;;;5065511;28;20208;-59
2023/01/17 13:01:23;;;;;;;1.30;0.60;;;;;;;;;;5073284;28;20216;-55
2023/01/17 13:03:57;;;;;;;0.57;0.57;;;;;;;;;;5067194;28;20779;-57
2023/01/17 13:06:32;;;;;;;0.50;0.50;;;;;;;;;;5067262;28;20250;-57
2023/01/17 13:09:00;;;;;;;0.57;0.50;;;;;;;;;;5072343;28;20200;-57
2023/01/17 13:11:29;;;;;;;0.75;0.50;;;;;;;;;;5075788;28;20212;-56
2023/01/17 13:13:56;;;;;;;0.40;0.40;;;;;;;;;;5075851;28;20305;-57
2023/01/17 13:16:27;;;;;;;0.50;0.50;;;;;;;;;;5077436;28;20212;-57
2023/01/17 13:18:55;;;;;;;0.50;0.50;;;;;;;;;;5072277;28;20250;-57
2023/01/17 13:21:29;;;;;;;1.60;1.50;;;;;;;;;;5071149;28;20212;-56
2023/01/17 13:24:04;;;;;;;0.80;0.80;;;;;;;;;;5073133;28;20500;-57
2023/01/17 13:26:38;;;;;;;0.50;0.50;;;;;;;;;;5093261;28;20211;-55
2023/01/17 13:29:09;;;;;;;0.50;0.50;;;;;;;;;;5077284;28;20244;-58
2023/01/17 13:31:44;;;;;;;0.60;0.60;;;;;;;;;;5079582;28;20528;-57
2023/01/17 13:34:38;;;;;;;0.57;0.57;;;;;;;;;;5076628;28;20235;-56
2023/01/17 13:37:16;;;;;;;0.50;0.50;;;;;;;;;;5071045;28;20212;-58
2023/01/17 13:39:51;;;;;;;0.65;0.55;;;;;;;;;;5075222;28;20208;-58
2023/01/17 13:42:23;;;;;;;0.57;0.57;;;;;;;;;;5069379;28;20215;-59
2023/01/17 13:44:49;;;;;;;0.60;0.60;;;;;;;;;;5081673;28;20204;-59
2023/01/17 13:47:37;;;;;;;1.80;1.10;;;;;;;;;;5076304;28;20288;-59
2023/01/17 13:50:05;;;;;;;1.00;0.90;;;;;;;;;;5076103;28;20215;-59
2023/01/17 13:52:33;;;;;;;1.17;0.60;;;;;;;;;;5077176;28;20212;-60
2023/01/17 13:55:00;;;;;;;0.95;0.68;;;;;;;;;;5066434;28;20248;-60
2023/01/17 13:57:34;;;;;;;1.38;1.25;;;;;;;;;;5081340;28;20213;-61
2023/01/17 14:00:31;;;;;;;1.35;1.10;;;;;;;;;;5075107;28;20460;-58
2023/01/17 14:02:58;;;;;;;0.80;0.80;;;;;;;;;;5070190;28;20209;-58
2023/01/17 14:05:46;;;;;;;0.85;0.75;;;;;;;;;;5068305;28;20535;-58
2023/01/17 14:08:15;;;;;;;1.08;0.82;;;;;;;;;;5079591;28;20219;-58
2023/01/17 14:10:44;;;;;;;0.98;0.82;;;;;;;;;;5078716;28;20238;-58
2023/01/17 14:13:27;;;;;;;3.30;1.25;;;;;;;;;;5065783;28;20220;-58
2023/01/17 14:15:53;;;;;;;1.30;1.20;;;;;;;;;;5074809;28;20547;-58
2023/01/17 14:18:30;;;;;;;1.13;1.00;;;;;;;;;;5074626;28;20212;-57
2023/01/17 14:21:07;;;;;;;1.20;1.13;;;;;;;;;;5074303;28;20208;-56
2023/01/17 14:23:56;;;;;;;1.25;1.10;;;;;;;;;;5077856;28;20219;-58
2023/01/17 14:26:37;;;;;;;4.40;1.35;;;;;;;;;;5061476;28;20217;-58
2023/01/17 14:29:34;;;;;;;1.35;1.10;;;;;;;;;;5069835;28;20228;-58
2023/01/17 14:32:01;;;;;;;1.60;1.33;;;;;;;;;;5085194;28;20247;-58
2023/01/17 14:34:27;;;;;;;1.73;1.25;;;;;;;;;;5079102;28;20400;-57
2023/01/17 14:37:03;;;;;;;1.40;1.30;;;;;;;;;;5075209;28;20227;-56
2023/01/17 14:39:30;;;;;;;2.78;1.10;;;;;;;;;;5079871;28;20219;-57
2023/01/17 14:41:57;;;;;;;1.80;1.40;;;;;;;;;;5083497;28;20651;-57
2023/01/17 14:44:23;;;;;;;2.03;1.85;;;;;;;;;;5073193;28;20254;-57
2023/01/17 14:46:50;;;;;;;2.45;1.50;;;;;;;;;;5080437;28;20213;-55
2023/01/17 14:49:20;;;;;;;2.80;1.58;;;;;;;;;;5079910;28;20281;-57
2023/01/17 14:51:58;;;;;;;1.83;1.50;;;;;;;;;;5080191;28;20442;-55
2023/01/17 14:54:24;;;;;;;2.97;1.27;;;;;;;;;;5078788;28;20262;-57
2023/01/17 14:56:52;;;;;;;5.75;1.60;;;;;;;;;;5073766;28;20684;-55
2023/01/17 14:59:20;;;;;;;3.55;1.92;;;;;;;;;;5078519;28;20258;-57
2023/01/17 15:01:50;;;;;;;4.95;2.03;;;;;;;;;;5076107;28;20447;-56
2023/01/17 15:04:25;;;;;;;3.08;1.90;;;;;;;;;;5084415;28;20483;-56
2023/01/17 15:06:51;;;;;;;2.95;2.17;;;;;;;;;;5073445;28;20422;-56
2023/01/17 15:09:19;;;;;;;4.45;2.10;;;;;;;;;;5071697;28;20405;-56
2023/01/17 15:11:46;;;;;;;3.20;1.73;;;;;;;;;;5078785;28;20213;-57
2023/01/17 15:14:19;;;;;;;3.17;1.80;;;;;;;;;;5078792;28;20228;-55
2023/01/17 15:16:46;;;;;;;2.00;1.80;;;;;;;;;;5078926;28;20517;-57
2023/01/17 15:19:13;;;;;;;3.65;2.33;;;;;;;;;;5077065;28;20441;-57
2023/01/17 15:21:41;;;;;;;2.22;2.08;;;;;;;;;;5069611;28;20215;-56
2023/01/17 15:24:09;;;;;;;1.90;1.80;;;;;;;;;;5079473;28;20228;-57
2023/01/17 15:26:37;;;;;;;1.98;1.88;;;;;;;;;;5081560;28;20412;-57
2023/01/17 15:29:05;;;;;;;2.30;2.13;;;;;;;;;;5077885;28;20232;-57
2023/01/17 15:31:40;;;;;;;1.90;1.75;;;;;;;;;;5078034;28;20219;-57
2023/01/17 15:34:07;;;;;;;2.83;1.95;;;;;;;;;;5069935;28;20551;-56
2023/01/17 15:36:34;;;;;;;3.58;1.98;;;;;;;;;;5068776;28;20212;-55
2023/01/17 15:39:01;;;;;;;3.90;2.17;;;;;;;;;;5059521;28;20555;-55
2023/01/17 15:41:30;;;;;;;2.17;2.00;;;;;;;;;;5059527;28;20224;-55
2023/01/17 15:43:57;;;;;;;2.88;1.95;;;;;;;;;;5065918;28;20200;-57
2023/01/17 15:46:27;;;;;;;2.25;2.13;;;;;;;;;;5081285;28;20196;-57
2023/01/17 15:49:05;;;;;;;2.75;2.00;;;;;;;;;;5067530;28;20208;-58
2023/01/17 15:51:33;;;;;;;3.20;1.90;;;;;;;;;;5072357;28;20208;-58
2023/01/17 15:53:59;;;;;;;2.63;1.90;;;;;;;;;;5070429;28;20433;-58
2023/01/17 15:56:30;;;;;;;4.32;2.08;;;;;;;;;;5071657;28;20544;-58
2023/01/17 15:59:11;;;;;;;3.88;1.98;;;;;;;;;;5074246;28;20196;-58
2023/01/17 16:01:37;;;;;;;1.77;1.60;;;;;;;;;;5071001;28;20197;-58
2023/01/17 16:04:24;;;;;;;1.83;1.73;;;;;;;;;;5070404;28;20196;-58
2023/01/17 16:06:50;;;;;;;1.83;1.70;;;;;;;;;;5070422;28;20251;-58
2023/01/17 16:09:20;;;;;;;3.22;2.38;;;;;;;;;;5070279;28;20201;-58
2023/01/17 16:11:47;;;;;;;1.95;1.80;;;;;;;;;;5070611;28;20204;-58
2023/01/17 16:14:13;;;;;;;3.65;2.05;;;;;;;;;;5070254;28;20205;-58
2023/01/17 16:16:39;;;;;;;4.43;2.08;;;;;;;;;;5073344;28;20188;-67